ePrivacy and GPDR Cookie Consent by Cookie Consent
EmailTwitter


Surface observations / United States / KJFK (74486)

Regions: Quebec | Canada | USA | Europe | France | UK | Elsewhere
Station
Display
Info & Location for KJFK (74486) | Help decoding METAR

Weather Conditions observed on 2024/07/22 at 21:51 UTC at NEW YORK/JF KENN, NY (KJFK)

Sky conditions: partly cloudy.

Temperature: 26.0 Celsius.

Dewpoint: 22.0 Celsius.

Relative Humidity: 79%

Humidex 35.

Winds: Southeast at 17 km/h or 9 knots.

Mean Sea level Pressure: 101.71 kilopascals.

Altimeter Setting (QNH): 101.73 kilopascals or 30.04 inches of mercury.

Horizontal visibility: 10.00 statute miles or 16.00 kilometers.

Height of the Ceiling: 823 metres ( 2700 feet ).

Coded METAR:

KJFK 222151Z 14009KT 10SM FEW014 BKN027 BKN160 OVC250 26/22 A3004 RMK AO2

SLP171 T02610222=